sensor_id;sensor_type;location;lat;lon;timestamp;P1;P2;P0
63969;PMS5003;50156;37.772;-122.432;2022-08-03T00:02:25;7;7;
63969;PMS5003;50156;37.772;-122.432;2022-08-03T00:04:53;8;8;
63969;PMS5003;50156;37.772;-122.432;2022-08-03T00:07:22;8;8;
63969;PMS5003;50156;37.772;-122.432;2022-08-03T00:09:51;7;7;
63969;PMS5003;50156;37.772;-122.432;2022-08-03T00:12:20;9;9;
63969;PMS5003;50156;37.772;-122.432;2022-08-03T00:14:48;9;8;
63969;PMS5003;50156;37.772;-122.432;2022-08-03T00:17:17;7;7;
63969;PMS5003;50156;37.772;-122.432;2022-08-03T00:19:45;8;7;
63969;PMS5003;50156;37.772;-122.432;2022-08-03T00:22:14;12;9;
63969;PMS5003;50156;37.772;-122.432;2022-08-03T00:24:42;13;9;
63969;PMS5003;50156;37.772;-122.432;2022-08-03T00:27:10;10;7;
63969;PMS5003;50156;37.772;-122.432;2022-08-03T00:29:38;7;7;
63969;PMS5003;50156;37.772;-122.432;2022-08-03T00:32:06;10;8;
63969;PMS5003;50156;37.772;-122.432;2022-08-03T00:34:35;7;7;
63969;PMS5003;50156;37.772;-122.432;2022-08-03T00:37:03;7;7;
63969;PMS5003;50156;37.772;-122.432;2022-08-03T00:39:32;10;10;
63969;PMS5003;50156;37.772;-122.432;2022-08-03T00:42:01;8;6;
63969;PMS5003;50156;37.772;-122.432;2022-08-03T00:44:30;11;10;
63969;PMS5003;50156;37.772;-122.432;2022-08-03T00:47:05;9;6;
63969;PMS5003;50156;37.772;-122.432;2022-08-03T00:49:34;11;9;
63969;PMS5003;50156;37.772;-122.432;2022-08-03T00:52:03;12;10;
63969;PMS5003;50156;37.772;-122.432;2022-08-03T00:54:32;7;7;
63969;PMS5003;50156;37.772;-122.432;2022-08-03T00:57:02;8;7;
63969;PMS5003;50156;37.772;-122.432;2022-08-03T00:59:31;6;6;
63969;PMS5003;50156;37.772;-122.432;2022-08-03T01:01:59;11;11;
63969;PMS5003;50156;37.772;-122.432;2022-08-03T01:04:28;8;7;
63969;PMS5003;50156;37.772;-122.432;2022-08-03T01:06:58;9;8;
63969;PMS5003;50156;37.772;-122.432;2022-08-03T01:09:36;9;9;
63969;PMS5003;50156;37.772;-122.432;2022-08-03T01:12:14;10;8;
63969;PMS5003;50156;37.772;-122.432;2022-08-03T01:14:49;13;11;
63969;PMS5003;50156;37.772;-122.432;2022-08-03T01:17:27;8;8;
63969;PMS5003;50156;37.772;-122.432;2022-08-03T01:20:04;13;10;
63969;PMS5003;50156;37.772;-122.432;2022-08-03T01:22:39;10;10;
63969;PMS5003;50156;37.772;-122.432;2022-08-03T01:25:23;12;11;
63969;PMS5003;50156;37.772;-122.432;2022-08-03T01:28:05;8;8;
63969;PMS5003;50156;37.772;-122.432;2022-08-03T01:30:46;18;13;
63969;PMS5003;50156;37.772;-122.432;2022-08-03T01:33:16;8;8;
63969;PMS5003;50156;37.772;-122.432;2022-08-03T01:35:51;11;11;
63969;PMS5003;50156;37.772;-122.432;2022-08-03T01:38:27;12;12;
63969;PMS5003;50156;37.772;-122.432;2022-08-03T01:41:00;13;11;
63969;PMS5003;50156;37.772;-122.432;2022-08-03T01:43:31;14;12;
63969;PMS5003;50156;37.772;-122.432;2022-08-03T01:46:02;11;11;
63969;PMS5003;50156;37.772;-122.432;2022-08-03T01:48:33;10;7;
63969;PMS5003;50156;37.772;-122.432;2022-08-03T01:51:04;11;9;
63969;PMS5003;50156;37.772;-122.432;2022-08-03T01:53:33;12;10;
63969;PMS5003;50156;37.772;-122.432;2022-08-03T01:56:04;12;11;
63969;PMS5003;50156;37.772;-122.432;2022-08-03T01:58:35;9;8;
63969;PMS5003;50156;37.772;-122.432;2022-08-03T02:01:06;10;10;
63969;PMS5003;50156;37.772;-122.432;2022-08-03T02:03:37;8;8;
63969;PMS5003;50156;37.772;-122.432;2022-08-03T02:06:08;11;11;
63969;PMS5003;50156;37.772;-122.432;2022-08-03T02:08:38;11;9;
63969;PMS5003;50156;37.772;-122.432;2022-08-03T02:11:07;11;9;
63969;PMS5003;50156;37.772;-122.432;2022-08-03T02:13:37;14;13;
63969;PMS5003;50156;37.772;-122.432;2022-08-03T02:16:06;15;13;
63969;PMS5003;50156;37.772;-122.432;2022-08-03T02:18:36;13;13;
63969;PMS5003;50156;37.772;-122.432;2022-08-03T02:21:08;13;13;
63969;PMS5003;50156;37.772;-122.432;2022-08-03T02:23:38;12;12;
63969;PMS5003;50156;37.772;-122.432;2022-08-03T02:26:08;13;12;
63969;PMS5003;50156;37.772;-122.432;2022-08-03T02:28:42;11;10;
63969;PMS5003;50156;37.772;-122.432;2022-08-03T02:31:15;13;12;
63969;PMS5003;50156;37.772;-122.432;2022-08-03T02:33:47;13;11;
63969;PMS5003;50156;37.772;-122.432;2022-08-03T02:36:19;14;10;
63969;PMS5003;50156;37.772;-122.432;2022-08-03T02:38:52;15;11;
63969;PMS5003;50156;37.772;-122.432;2022-08-03T02:41:27;14;14;
63969;PMS5003;50156;37.772;-122.432;2022-08-03T02:43:59;11;11;
63969;PMS5003;50156;37.772;-122.432;2022-08-03T02:46:35;19;17;
63969;PMS5003;50156;37.772;-122.432;2022-08-03T02:49:05;13;13;
63969;PMS5003;50156;37.772;-122.432;2022-08-03T02:51:35;13;13;
63969;PMS5003;50156;37.772;-122.432;2022-08-03T02:54:05;18;18;
63969;PMS5003;50156;37.772;-122.432;2022-08-03T02:56:35;20;15;
63969;PMS5003;50156;37.772;-122.432;2022-08-03T02:59:05;12;12;
63969;PMS5003;50156;37.772;-122.432;2022-08-03T03:01:35;14;14;
63969;PMS5003;50156;37.772;-122.432;2022-08-03T03:04:05;17;15;
63969;PMS5003;50156;37.772;-122.432;2022-08-03T03:06:37;18;16;
63969;PMS5003;50156;37.772;-122.432;2022-08-03T03:09:07;12;12;
63969;PMS5003;50156;37.772;-122.432;2022-08-03T03:11:37;16;13;
63969;PMS5003;50156;37.772;-122.432;2022-08-03T03:14:06;16;14;
63969;PMS5003;50156;37.772;-122.432;2022-08-03T03:16:37;14;14;
63969;PMS5003;50156;37.772;-122.432;2022-08-03T03:19:07;19;14;
63969;PMS5003;50156;37.772;-122.432;2022-08-03T03:21:39;19;19;
63969;PMS5003;50156;37.772;-122.432;2022-08-03T03:24:09;17;16;
63969;PMS5003;50156;37.772;-122.432;2022-08-03T03:26:38;18;17;
63969;PMS5003;50156;37.772;-122.432;2022-08-03T03:29:07;26;18;
63969;PMS5003;50156;37.772;-122.432;2022-08-03T03:31:35;19;15;
63969;PMS5003;50156;37.772;-122.432;2022-08-03T03:34:04;13;13;
63969;PMS5003;50156;37.772;-122.432;2022-08-03T03:36:33;16;14;
63969;PMS5003;50156;37.772;-122.432;2022-08-03T03:39:03;17;15;
63969;PMS5003;50156;37.772;-122.432;2022-08-03T03:41:32;15;15;
63969;PMS5003;50156;37.772;-122.432;2022-08-03T03:44:02;22;16;
63969;PMS5003;50156;37.772;-122.432;2022-08-03T03:46:31;20;19;
63969;PMS5003;50156;37.772;-122.432;2022-08-03T03:49:00;13;13;
63969;PMS5003;50156;37.772;-122.432;2022-08-03T03:51:28;16;13;
63969;PMS5003;50156;37.772;-122.432;2022-08-03T03:53:57;18;17;
63969;PMS5003;50156;37.772;-122.432;2022-08-03T03:56:27;19;18;
63969;PMS5003;50156;37.772;-122.432;2022-08-03T03:58:56;16;14;
63969;PMS5003;50156;37.772;-122.432;2022-08-03T04:01:24;15;15;
63969;PMS5003;50156;37.772;-122.432;2022-08-03T04:03:53;20;20;
63969;PMS5003;50156;37.772;-122.432;2022-08-03T04:06:21;17;15;
63969;PMS5003;50156;37.772;-122.432;2022-08-03T04:08:50;27;23;
63969;PMS5003;50156;37.772;-122.432;2022-08-03T04:11:19;19;19;
63969;PMS5003;50156;37.772;-122.432;2022-08-03T04:13:54;10;10;
63969;PMS5003;50156;37.772;-122.432;2022-08-03T04:16:25;18;14;
63969;PMS5003;50156;37.772;-122.432;2022-08-03T04:18:56;15;14;
63969;PMS5003;50156;37.772;-122.432;2022-08-03T04:21:29;20;20;
63969;PMS5003;50156;37.772;-122.432;2022-08-03T04:24:01;15;15;
63969;PMS5003;50156;37.772;-122.432;2022-08-03T04:26:33;16;15;
63969;PMS5003;50156;37.772;-122.432;2022-08-03T04:29:06;23;19;
63969;PMS5003;50156;37.772;-122.432;2022-08-03T04:31:37;19;19;
63969;PMS5003;50156;37.772;-122.432;2022-08-03T04:34:07;18;13;
63969;PMS5003;50156;37.772;-122.432;2022-08-03T04:36:37;14;14;
63969;PMS5003;50156;37.772;-122.432;2022-08-03T04:39:12;13;13;
63969;PMS5003;50156;37.772;-122.432;2022-08-03T04:41:45;11;11;
63969;PMS5003;50156;37.772;-122.432;2022-08-03T04:44:14;14;13;
63969;PMS5003;50156;37.772;-122.432;2022-08-03T04:46:43;15;13;
63969;PMS5003;50156;37.772;-122.432;2022-08-03T04:49:11;12;12;
63969;PMS5003;50156;37.772;-122.432;2022-08-03T04:51:40;17;15;
63969;PMS5003;50156;37.772;-122.432;2022-08-03T04:54:11;17;15;
63969;PMS5003;50156;37.772;-122.432;2022-08-03T04:56:40;13;12;
63969;PMS5003;50156;37.772;-122.432;2022-08-03T04:59:09;14;14;
63969;PMS5003;50156;37.772;-122.432;2022-08-03T05:01:38;15;15;
63969;PMS5003;50156;37.772;-122.432;2022-08-03T05:04:07;18;16;
63969;PMS5003;50156;37.772;-122.432;2022-08-03T05:06:35;14;13;
63969;PMS5003;50156;37.772;-122.432;2022-08-03T05:09:04;17;15;
63969;PMS5003;50156;37.772;-122.432;2022-08-03T05:11:33;16;16;
63969;PMS5003;50156;37.772;-122.432;2022-08-03T05:14:04;12;12;
63969;PMS5003;50156;37.772;-122.432;2022-08-03T05:16:33;14;14;
63969;PMS5003;50156;37.772;-122.432;2022-08-03T05:19:01;13;12;
63969;PMS5003;50156;37.772;-122.432;2022-08-03T05:21:29;13;13;
63969;PMS5003;50156;37.772;-122.432;2022-08-03T05:23:58;12;12;
63969;PMS5003;50156;37.772;-122.432;2022-08-03T05:26:27;13;13;
63969;PMS5003;50156;37.772;-122.432;2022-08-03T05:28:55;15;13;
63969;PMS5003;50156;37.772;-122.432;2022-08-03T05:31:24;12;12;
63969;PMS5003;50156;37.772;-122.432;2022-08-03T05:33:53;13;13;
63969;PMS5003;50156;37.772;-122.432;2022-08-03T05:36:23;12;12;
63969;PMS5003;50156;37.772;-122.432;2022-08-03T05:38:52;12;10;
63969;PMS5003;50156;37.772;-122.432;2022-08-03T05:41:20;15;12;
63969;PMS5003;50156;37.772;-122.432;2022-08-03T05:43:48;14;12;
63969;PMS5003;50156;37.772;-122.432;2022-08-03T05:46:18;13;9;
63969;PMS5003;50156;37.772;-122.432;2022-08-03T05:48:48;12;12;
63969;PMS5003;50156;37.772;-122.432;2022-08-03T05:51:17;12;12;
63969;PMS5003;50156;37.772;-122.432;2022-08-03T05:53:45;17;13;
63969;PMS5003;50156;37.772;-122.432;2022-08-03T05:56:14;12;10;
63969;PMS5003;50156;37.772;-122.432;2022-08-03T05:58:44;12;11;
63969;PMS5003;50156;37.772;-122.432;2022-08-03T06:01:13;12;9;
63969;PMS5003;50156;37.772;-122.432;2022-08-03T06:03:41;11;10;
63969;PMS5003;50156;37.772;-122.432;2022-08-03T06:06:10;17;11;
63969;PMS5003;50156;37.772;-122.432;2022-08-03T06:08:40;15;13;
63969;PMS5003;50156;37.772;-122.432;2022-08-03T06:11:09;11;10;
63969;PMS5003;50156;37.772;-122.432;2022-08-03T06:13:37;12;10;
63969;PMS5003;50156;37.772;-122.432;2022-08-03T06:16:07;9;9;
63969;PMS5003;50156;37.772;-122.432;2022-08-03T06:18:36;14;14;
63969;PMS5003;50156;37.772;-122.432;2022-08-03T06:21:05;10;9;
63969;PMS5003;50156;37.772;-122.432;2022-08-03T06:23:34;13;10;
63969;PMS5003;50156;37.772;-122.432;2022-08-03T06:26:02;13;12;
63969;PMS5003;50156;37.772;-122.432;2022-08-03T06:28:30;12;12;
63969;PMS5003;50156;37.772;-122.432;2022-08-03T06:30:59;11;10;
63969;PMS5003;50156;37.772;-122.432;2022-08-03T06:33:28;14;11;
63969;PMS5003;50156;37.772;-122.432;2022-08-03T06:35:56;10;10;
63969;PMS5003;50156;37.772;-122.432;2022-08-03T06:38:24;9;8;
63969;PMS5003;50156;37.772;-122.432;2022-08-03T06:40:52;13;11;
63969;PMS5003;50156;37.772;-122.432;2022-08-03T06:43:21;10;10;
63969;PMS5003;50156;37.772;-122.432;2022-08-03T06:45:49;10;10;
63969;PMS5003;50156;37.772;-122.432;2022-08-03T06:48:17;10;10;
63969;PMS5003;50156;37.772;-122.432;2022-08-03T06:50:46;12;10;
63969;PMS5003;50156;37.772;-122.432;2022-08-03T06:53:14;11;10;
63969;PMS5003;50156;37.772;-122.432;2022-08-03T06:55:42;14;11;
63969;PMS5003;50156;37.772;-122.432;2022-08-03T06:58:11;13;13;
63969;PMS5003;50156;37.772;-122.432;2022-08-03T07:00:39;9;9;
63969;PMS5003;50156;37.772;-122.432;2022-08-03T07:03:07;10;10;
63969;PMS5003;50156;37.772;-122.432;2022-08-03T07:05:35;14;11;
63969;PMS5003;50156;37.772;-122.432;2022-08-03T07:08:05;12;10;
63969;PMS5003;50156;37.772;-122.432;2022-08-03T07:10:33;11;11;
63969;PMS5003;50156;37.772;-122.432;2022-08-03T07:13:02;15;13;
63969;PMS5003;50156;37.772;-122.432;2022-08-03T07:15:31;11;10;
63969;PMS5003;50156;37.772;-122.432;2022-08-03T07:17:59;15;13;
63969;PMS5003;50156;37.772;-122.432;2022-08-03T07:20:28;12;9;
63969;PMS5003;50156;37.772;-122.432;2022-08-03T07:22:56;10;10;
63969;PMS5003;50156;37.772;-122.432;2022-08-03T07:25:25;9;9;
63969;PMS5003;50156;37.772;-122.432;2022-08-03T07:27:53;12;10;
63969;PMS5003;50156;37.772;-122.432;2022-08-03T07:30:21;12;11;
63969;PMS5003;50156;37.772;-122.432;2022-08-03T07:32:50;15;12;
63969;PMS5003;50156;37.772;-122.432;2022-08-03T07:35:19;13;13;
63969;PMS5003;50156;37.772;-122.432;2022-08-03T07:37:47;12;12;
63969;PMS5003;50156;37.772;-122.432;2022-08-03T07:40:16;12;12;
63969;PMS5003;50156;37.772;-122.432;2022-08-03T07:42:44;17;16;
63969;PMS5003;50156;37.772;-122.432;2022-08-03T07:45:13;19;19;
63969;PMS5003;50156;37.772;-122.432;2022-08-03T07:47:41;11;10;
63969;PMS5003;50156;37.772;-122.432;2022-08-03T07:50:10;16;13;
63969;PMS5003;50156;37.772;-122.432;2022-08-03T07:52:39;12;12;
63969;PMS5003;50156;37.772;-122.432;2022-08-03T07:55:07;11;10;
63969;PMS5003;50156;37.772;-122.432;2022-08-03T07:57:36;17;15;
63969;PMS5003;50156;37.772;-122.432;2022-08-03T08:00:05;14;11;
63969;PMS5003;50156;37.772;-122.432;2022-08-03T08:02:41;14;12;
63969;PMS5003;50156;37.772;-122.432;2022-08-03T08:05:10;13;11;
63969;PMS5003;50156;37.772;-122.432;2022-08-03T08:07:39;16;11;
63969;PMS5003;50156;37.772;-122.432;2022-08-03T08:10:08;13;12;
63969;PMS5003;50156;37.772;-122.432;2022-08-03T08:12:37;14;14;
63969;PMS5003;50156;37.772;-122.432;2022-08-03T08:15:06;16;16;
63969;PMS5003;50156;37.772;-122.432;2022-08-03T08:17:40;11;11;
63969;PMS5003;50156;37.772;-122.432;2022-08-03T08:20:11;14;12;
63969;PMS5003;50156;37.772;-122.432;2022-08-03T08:22:44;12;11;
63969;PMS5003;50156;37.772;-122.432;2022-08-03T08:25:12;12;10;
63969;PMS5003;50156;37.772;-122.432;2022-08-03T08:27:41;10;10;
63969;PMS5003;50156;37.772;-122.432;2022-08-03T08:30:13;17;14;
63969;PMS5003;50156;37.772;-122.432;2022-08-03T08:32:42;12;11;
63969;PMS5003;50156;37.772;-122.432;2022-08-03T08:35:11;12;12;
63969;PMS5003;50156;37.772;-122.432;2022-08-03T08:37:40;10;9;
63969;PMS5003;50156;37.772;-122.432;2022-08-03T08:40:09;11;11;
63969;PMS5003;50156;37.772;-122.432;2022-08-03T08:42:39;14;10;
63969;PMS5003;50156;37.772;-122.432;2022-08-03T08:45:10;10;10;
63969;PMS5003;50156;37.772;-122.432;2022-08-03T08:47:39;12;10;
63969;PMS5003;50156;37.772;-122.432;2022-08-03T08:50:13;12;9;
63969;PMS5003;50156;37.772;-122.432;2022-08-03T08:52:45;11;10;
63969;PMS5003;50156;37.772;-122.432;2022-08-03T08:55:17;10;10;
63969;PMS5003;50156;37.772;-122.432;2022-08-03T08:57:48;12;10;
63969;PMS5003;50156;37.772;-122.432;2022-08-03T09:00:19;8;8;
63969;PMS5003;50156;37.772;-122.432;2022-08-03T09:02:47;8;8;
63969;PMS5003;50156;37.772;-122.432;2022-08-03T09:05:16;12;10;
63969;PMS5003;50156;37.772;-122.432;2022-08-03T09:07:45;11;11;
63969;PMS5003;50156;37.772;-122.432;2022-08-03T09:10:15;12;11;
63969;PMS5003;50156;37.772;-122.432;2022-08-03T09:12:45;7;7;
63969;PMS5003;50156;37.772;-122.432;2022-08-03T09:15:17;11;7;
63969;PMS5003;50156;37.772;-122.432;2022-08-03T09:17:47;12;12;
63969;PMS5003;50156;37.772;-122.432;2022-08-03T09:20:17;7;7;
63969;PMS5003;50156;37.772;-122.432;2022-08-03T09:22:51;12;8;
63969;PMS5003;50156;37.772;-122.432;2022-08-03T09:25:27;9;7;
63969;PMS5003;50156;37.772;-122.432;2022-08-03T09:28:06;8;7;
63969;PMS5003;50156;37.772;-122.432;2022-08-03T09:30:37;9;8;
63969;PMS5003;50156;37.772;-122.432;2022-08-03T09:33:07;8;8;
63969;PMS5003;50156;37.772;-122.432;2022-08-03T09:35:41;7;6;
63969;PMS5003;50156;37.772;-122.432;2022-08-03T09:38:12;7;7;
63969;PMS5003;50156;37.772;-122.432;2022-08-03T09:40:43;11;9;
63969;PMS5003;50156;37.772;-122.432;2022-08-03T09:43:12;8;7;
63969;PMS5003;50156;37.772;-122.432;2022-08-03T09:45:41;9;8;
63969;PMS5003;50156;37.772;-122.432;2022-08-03T09:48:26;9;8;
63969;PMS5003;50156;37.772;-122.432;2022-08-03T09:50:57;6;6;
63969;PMS5003;50156;37.772;-122.432;2022-08-03T09:53:27;8;8;
63969;PMS5003;50156;37.772;-122.432;2022-08-03T09:55:57;6;5;
63969;PMS5003;50156;37.772;-122.432;2022-08-03T09:58:27;9;9;
63969;PMS5003;50156;37.772;-122.432;2022-08-03T10:00:58;8;7;
63969;PMS5003;50156;37.772;-122.432;2022-08-03T10:03:28;12;9;
63969;PMS5003;50156;37.772;-122.432;2022-08-03T10:05:58;8;7;
63969;PMS5003;50156;37.772;-122.432;2022-08-03T10:08:41;12;12;
63969;PMS5003;50156;37.772;-122.432;2022-08-03T10:11:10;7;7;
63969;PMS5003;50156;37.772;-122.432;2022-08-03T10:13:38;9;7;
63969;PMS5003;50156;37.772;-122.432;2022-08-03T10:16:07;7;7;
63969;PMS5003;50156;37.772;-122.432;2022-08-03T10:18:36;7;7;
63969;PMS5003;50156;37.772;-122.432;2022-08-03T10:21:06;9;8;
63969;PMS5003;50156;37.772;-122.432;2022-08-03T10:23:42;6;6;
63969;PMS5003;50156;37.772;-122.432;2022-08-03T10:26:11;8;7;
63969;PMS5003;50156;37.772;-122.432;2022-08-03T10:28:46;9;9;
63969;PMS5003;50156;37.772;-122.432;2022-08-03T10:31:19;10;9;
63969;PMS5003;50156;37.772;-122.432;2022-08-03T10:33:51;6;6;
63969;PMS5003;50156;37.772;-122.432;2022-08-03T10:36:23;7;7;
63969;PMS5003;50156;37.772;-122.432;2022-08-03T10:38:58;7;7;
63969;PMS5003;50156;37.772;-122.432;2022-08-03T10:41:30;7;7;
63969;PMS5003;50156;37.772;-122.432;2022-08-03T10:44:05;6;6;
63969;PMS5003;50156;37.772;-122.432;2022-08-03T10:46:37;7;6;
63969;PMS5003;50156;37.772;-122.432;2022-08-03T10:49:06;7;7;
63969;PMS5003;50156;37.772;-122.432;2022-08-03T10:51:38;6;6;
63969;PMS5003;50156;37.772;-122.432;2022-08-03T10:54:07;7;7;
63969;PMS5003;50156;37.772;-122.432;2022-08-03T10:57:05;8;8;
63969;PMS5003;50156;37.772;-122.432;2022-08-03T11:00:08;6;6;
63969;PMS5003;50156;37.772;-122.432;2022-08-03T11:03:09;8;8;
63969;PMS5003;50156;37.772;-122.432;2022-08-03T11:05:40;10;10;
63969;PMS5003;50156;37.772;-122.432;2022-08-03T11:08:27;9;9;
63969;PMS5003;50156;37.772;-122.432;2022-08-03T11:10:58;8;8;
63969;PMS5003;50156;37.772;-122.432;2022-08-03T11:13:28;9;9;
63969;PMS5003;50156;37.772;-122.432;2022-08-03T11:15:59;5;5;
63969;PMS5003;50156;37.772;-122.432;2022-08-03T11:18:30;7;7;
63969;PMS5003;50156;37.772;-122.432;2022-08-03T11:20:58;7;7;
63969;PMS5003;50156;37.772;-122.432;2022-08-03T11:23:44;11;9;
63969;PMS5003;50156;37.772;-122.432;2022-08-03T11:26:14;12;12;
63969;PMS5003;50156;37.772;-122.432;2022-08-03T11:28:44;7;7;
63969;PMS5003;50156;37.772;-122.432;2022-08-03T11:31:45;9;8;
63969;PMS5003;50156;37.772;-122.432;2022-08-03T11:34:15;6;6;
63969;PMS5003;50156;37.772;-122.432;2022-08-03T11:39:37;7;7;
63969;PMS5003;50156;37.772;-122.432;2022-08-03T11:42:38;4;4;
63969;PMS5003;50156;37.772;-122.432;2022-08-03T11:45:07;13;12;
63969;PMS5003;50156;37.772;-122.432;2022-08-03T11:47:37;7;7;
63969;PMS5003;50156;37.772;-122.432;2022-08-03T11:50:07;13;10;
63969;PMS5003;50156;37.772;-122.432;2022-08-03T11:52:37;10;10;
63969;PMS5003;50156;37.772;-122.432;2022-08-03T11:55:08;10;10;
63969;PMS5003;50156;37.772;-122.432;2022-08-03T11:57:38;10;9;
63969;PMS5003;50156;37.772;-122.432;2022-08-03T12:00:21;7;7;
63969;PMS5003;50156;37.772;-122.432;2022-08-03T12:02:55;6;6;
63969;PMS5003;50156;37.772;-122.432;2022-08-03T12:05:42;7;7;
63969;PMS5003;50156;37.772;-122.432;2022-08-03T12:08:13;13;10;
63969;PMS5003;50156;37.772;-122.432;2022-08-03T12:10:46;7;7;
63969;PMS5003;50156;37.772;-122.432;2022-08-03T12:13:16;9;7;
63969;PMS5003;50156;37.772;-122.432;2022-08-03T12:15:50;2;2;
63969;PMS5003;50156;37.772;-122.432;2022-08-03T12:18:20;4;3;
63969;PMS5003;50156;37.772;-122.432;2022-08-03T12:20:50;4;4;
63969;PMS5003;50156;37.772;-122.432;2022-08-03T12:23:19;7;7;
63969;PMS5003;50156;37.772;-122.432;2022-08-03T12:25:48;6;5;
63969;PMS5003;50156;37.772;-122.432;2022-08-03T12:28:18;9;8;
63969;PMS5003;50156;37.772;-122.432;2022-08-03T12:30:48;10;9;
63969;PMS5003;50156;37.772;-122.432;2022-08-03T12:33:19;10;6;
63969;PMS5003;50156;37.772;-122.432;2022-08-03T12:36:04;7;7;
63969;PMS5003;50156;37.772;-122.432;2022-08-03T12:38:35;7;7;
63969;PMS5003;50156;37.772;-122.432;2022-08-03T12:41:06;11;7;
63969;PMS5003;50156;37.772;-122.432;2022-08-03T12:43:35;8;6;
63969;PMS5003;50156;37.772;-122.432;2022-08-03T12:46:08;7;5;
63969;PMS5003;50156;37.772;-122.432;2022-08-03T12:49:11;3;3;
63969;PMS5003;50156;37.772;-122.432;2022-08-03T12:51:55;4;4;
63969;PMS5003;50156;37.772;-122.432;2022-08-03T12:54:25;5;5;
63969;PMS5003;50156;37.772;-122.432;2022-08-03T12:56:57;9;6;
63969;PMS5003;50156;37.772;-122.432;2022-08-03T12:59:27;3;3;
63969;PMS5003;50156;37.772;-122.432;2022-08-03T13:01:56;9;5;
63969;PMS5003;50156;37.772;-122.432;2022-08-03T13:04:25;4;4;
63969;PMS5003;50156;37.772;-122.432;2022-08-03T13:06:56;8;5;
63969;PMS5003;50156;37.772;-122.432;2022-08-03T13:09:25;2;2;
63969;PMS5003;50156;37.772;-122.432;2022-08-03T13:12:11;6;6;
63969;PMS5003;50156;37.772;-122.432;2022-08-03T13:14:42;4;4;
63969;PMS5003;50156;37.772;-122.432;2022-08-03T13:17:11;4;4;
63969;PMS5003;50156;37.772;-122.432;2022-08-03T13:19:41;3;3;
63969;PMS5003;50156;37.772;-122.432;2022-08-03T13:22:10;5;5;
63969;PMS5003;50156;37.772;-122.432;2022-08-03T13:24:40;4;4;
63969;PMS5003;50156;37.772;-122.432;2022-08-03T13:27:09;5;5;
63969;PMS5003;50156;37.772;-122.432;2022-08-03T13:29:39;5;5;
63969;PMS5003;50156;37.772;-122.432;2022-08-03T13:32:08;3;3;
63969;PMS5003;50156;37.772;-122.432;2022-08-03T13:34:37;4;4;
63969;PMS5003;50156;37.772;-122.432;2022-08-03T13:37:05;6;5;
63969;PMS5003;50156;37.772;-122.432;2022-08-03T13:39:34;3;3;
63969;PMS5003;50156;37.772;-122.432;2022-08-03T13:42:03;3;3;
63969;PMS5003;50156;37.772;-122.432;2022-08-03T13:44:32;3;3;
63969;PMS5003;50156;37.772;-122.432;2022-08-03T13:47:01;7;4;
63969;PMS5003;50156;37.772;-122.432;2022-08-03T13:49:31;4;4;
63969;PMS5003;50156;37.772;-122.432;2022-08-03T13:52:00;5;5;
63969;PMS5003;50156;37.772;-122.432;2022-08-03T13:54:28;3;3;
63969;PMS5003;50156;37.772;-122.432;2022-08-03T13:56:56;4;4;
63969;PMS5003;50156;37.772;-122.432;2022-08-03T13:59:24;6;5;
63969;PMS5003;50156;37.772;-122.432;2022-08-03T14:01:53;4;4;
63969;PMS5003;50156;37.772;-122.432;2022-08-03T14:04:21;5;4;
63969;PMS5003;50156;37.772;-122.432;2022-08-03T14:06:50;5;4;
63969;PMS5003;50156;37.772;-122.432;2022-08-03T14:09:18;3;3;
63969;PMS5003;50156;37.772;-122.432;2022-08-03T14:11:46;4;4;
63969;PMS5003;50156;37.772;-122.432;2022-08-03T14:14:14;3;3;
63969;PMS5003;50156;37.772;-122.432;2022-08-03T14:16:42;3;2;
63969;PMS5003;50156;37.772;-122.432;2022-08-03T14:19:10;5;3;
63969;PMS5003;50156;37.772;-122.432;2022-08-03T14:21:39;3;3;
63969;PMS5003;50156;37.772;-122.432;2022-08-03T14:24:07;4;4;
63969;PMS5003;50156;37.772;-122.432;2022-08-03T14:26:35;3;3;
63969;PMS5003;50156;37.772;-122.432;2022-08-03T14:29:04;3;3;
63969;PMS5003;50156;37.772;-122.432;2022-08-03T14:31:32;2;2;
63969;PMS5003;50156;37.772;-122.432;2022-08-03T14:34:03;1;1;
63969;PMS5003;50156;37.772;-122.432;2022-08-03T14:36:31;7;5;
63969;PMS5003;50156;37.772;-122.432;2022-08-03T14:38:59;2;2;
63969;PMS5003;50156;37.772;-122.432;2022-08-03T14:41:28;3;3;
63969;PMS5003;50156;37.772;-122.432;2022-08-03T14:43:56;5;4;
63969;PMS5003;50156;37.772;-122.432;2022-08-03T14:46:24;3;3;
63969;PMS5003;50156;37.772;-122.432;2022-08-03T14:48:53;4;4;
63969;PMS5003;50156;37.772;-122.432;2022-08-03T14:51:22;1;1;
63969;PMS5003;50156;37.772;-122.432;2022-08-03T14:53:50;3;3;
63969;PMS5003;50156;37.772;-122.432;2022-08-03T14:56:18;6;4;
63969;PMS5003;50156;37.772;-122.432;2022-08-03T14:58:46;5;5;
63969;PMS5003;50156;37.772;-122.432;2022-08-03T15:01:15;2;2;
63969;PMS5003;50156;37.772;-122.432;2022-08-03T15:03:43;3;3;
63969;PMS5003;50156;37.772;-122.432;2022-08-03T15:06:11;3;2;
63969;PMS5003;50156;37.772;-122.432;2022-08-03T15:08:39;2;2;
63969;PMS5003;50156;37.772;-122.432;2022-08-03T15:11:08;2;2;
63969;PMS5003;50156;37.772;-122.432;2022-08-03T15:13:36;2;2;
63969;PMS5003;50156;37.772;-122.432;2022-08-03T15:16:04;0;0;
63969;PMS5003;50156;37.772;-122.432;2022-08-03T15:18:33;2;2;
63969;PMS5003;50156;37.772;-122.432;2022-08-03T15:21:01;2;2;
63969;PMS5003;50156;37.772;-122.432;2022-08-03T15:23:29;3;3;
63969;PMS5003;50156;37.772;-122.432;2022-08-03T15:25:58;0;0;
63969;PMS5003;50156;37.772;-122.432;2022-08-03T15:28:26;2;2;
63969;PMS5003;50156;37.772;-122.432;2022-08-03T15:30:55;2;2;
63969;PMS5003;50156;37.772;-122.432;2022-08-03T15:33:24;3;3;
63969;PMS5003;50156;37.772;-122.432;2022-08-03T15:35:53;2;2;
63969;PMS5003;50156;37.772;-122.432;2022-08-03T15:38:22;3;2;
63969;PMS5003;50156;37.772;-122.432;2022-08-03T15:40:50;2;2;
63969;PMS5003;50156;37.772;-122.432;2022-08-03T15:43:19;2;2;
63969;PMS5003;50156;37.772;-122.432;2022-08-03T15:45:48;2;2;
63969;PMS5003;50156;37.772;-122.432;2022-08-03T15:48:17;1;1;
63969;PMS5003;50156;37.772;-122.432;2022-08-03T15:50:45;2;2;
63969;PMS5003;50156;37.772;-122.432;2022-08-03T15:53:13;1;1;
63969;PMS5003;50156;37.772;-122.432;2022-08-03T15:55:42;1;1;
63969;PMS5003;50156;37.772;-122.432;2022-08-03T15:58:11;1;1;
63969;PMS5003;50156;37.772;-122.432;2022-08-03T16:00:39;3;1;
63969;PMS5003;50156;37.772;-122.432;2022-08-03T16:03:09;2;2;
63969;PMS5003;50156;37.772;-122.432;2022-08-03T16:05:38;2;2;
63969;PMS5003;50156;37.772;-122.432;2022-08-03T16:08:07;3;3;
63969;PMS5003;50156;37.772;-122.432;2022-08-03T16:10:35;3;3;
63969;PMS5003;50156;37.772;-122.432;2022-08-03T16:13:05;3;3;